Norwegian Dream — C6LG5 — position and weather

sailwx.info

Track history (hours):
 
Tides and Currents Weather Stations Pressure Air Temp Water Temp Dewpoint Dewpoint Depression Visibility Wind Speed Wind Dir Waves Ship Positions

Norwegian Dream

Operator: Norwegian Cruise Line

Last reported at 2018-May-22 18:00 UTC. Time now 2018-May-23 05:23 UTC.
Position N 25°42' E 125°24'.

Type: Other ship. MMSI: 308272000.

Wind from 270 at 10 knots

Barometer 1010.0 mb
Air temperature 26.0 ° C
Visibility: greater than 10.8 NM
Dewpoint 24.6 ° C
Water temperature 30.0 ° C

Date/timePositionNaut miles runAvg speedWind from/ knotsBaromVisibWave heightAir tempDewpointWater temp
2018-May-22 18:00N 25°42' E 125°24'34615.8 270 / 101010.010.8 26.024.630.0
2018-May-21 20:05N 24°31' E 119°10'715.3
2018-May-21 19:40N 24°27' E 119°05'715.5
2018-May-21 19:12N 24°24' E 118°58'715.9
2018-May-21 18:45N 24°20' E 118°51'1016.1
2018-May-21 18:07N 24°14' E 118°42'646.6
2018-May-21 18:00N 24°12' E 118°36'386.8 020 / 101011.0 5.4 26.024.630.0
2018-May-21 17:57N 24°13' E 118°39'816.0
2018-May-21 17:28N 24°11' E 118°31'715.9
2018-May-21 17:00N 24°12' E 118°23'815.6
2018-May-21 16:30N 24°15' E 118°15'714.2
2018-May-21 16:01N 24°21' E 118°10'714.1
2018-May-21 15:30N 24°25' E 118°04'4 7.9
2018-May-21 15:00N 24°29' E 118°04'0 0.1
2018-May-21 14:27N 24°29' E 118°04'0 0.0
2018-May-21 13:57N 24°29' E 118°04'0 0.0
2018-May-21 13:27N 24°29' E 118°04'0 0.0
2018-May-21 12:57N 24°29' E 118°04'0 0.0
2018-May-21 12:27N 24°29' E 118°04'0 0.0
2018-May-21 11:57N 24°29' E 118°04'0 0.0
2018-May-21 11:27N 24°29' E 118°04'0 0.0
2018-May-21 10:57N 24°29' E 118°04'0 0.0
2018-May-21 10:25N 24°29' E 118°04'0 0.0
2018-May-21 09:57N 24°29' E 118°04'0 0.0
2018-May-21 09:30N 24°29' E 118°04'2 3.5
2018-May-21 09:00N 24°28' E 118°03'611.4
2018-May-21 08:30N 24°23' E 118°07'612.5
2018-May-21 08:01N 24°19' E 118°12'714.3
2018-May-21 07:30N 24°13' E 118°17'714.2
2018-May-21 07:00N 24°10' E 118°23'20515.8
2018-May-20 18:00N 25°24' E 121°54'211 8.8 200 / 81010.0 5.4 26.024.630.0
2018-May-19 18:00N 25°24' E 125°48'18 0.8 180 / 141010.010.8 26.024.630.0
2018-May-18 18:00N 25°42' E 125°48'38716.8 180 / 191010.0 5.4 26.024.631.0
2018-May-17 18:54N 24°21' E 118°50'1517.2
2018-May-17 18:02N 24°14' E 118°36'217.0
2018-May-17 17:56N 24°13' E 118°34'716.6
2018-May-17 17:30N 24°12' E 118°27'815.7
2018-May-17 17:00N 24°14' E 118°18'815.1
2018-May-17 16:30N 24°19' E 118°12'611.6
2018-May-17 16:00N 24°23' E 118°07'510.3
2018-May-17 15:30N 24°26' E 118°03'3 6.1
2018-May-17 15:00N 24°29' E 118°04'0 0.0
2018-May-17 14:15N 24°29' E 118°04'0 0.0
2018-May-17 13:57N 24°29' E 118°04'0 0.0
2018-May-17 13:27N 24°29' E 118°04'0 0.0
2018-May-17 12:58N 24°29' E 118°04'0 0.0
2018-May-17 11:33N 24°29' E 118°04'0 0.0
2018-May-17 10:57N 24°29' E 118°04'0 0.0
2018-May-17 10:22N 24°29' E 118°04'0 0.8
2018-May-17 10:00N 24°29' E 118°04'4 7.4
2018-May-17 09:30N 24°25' E 118°04'612.0
2018-May-17 09:00N 24°21' E 118°09'814.3
2018-May-17 08:27N 24°16' E 118°15'1319.9
2018-May-17 07:49N 24°11' E 118°28'20114.5
2018-May-16 18:00N 25°24' E 121°54'149 6.2 170 / 271009.0 5.4 26.023.222.0
2018-May-15 18:00N 25°00' E 124°36'31313.7 160 / 191011.010.8 27.024.323.0
2018-May-14 19:07N 24°23' E 118°54'516.3
2018-May-14 18:48N 24°20' E 118°50'2024.2
2018-May-14 18:00N 24°12' E 118°30'6114.1 170 / 141010.010.8 25.022.221.0
2018-May-14 17:56N 24°13' E 118°37'715.6
2018-May-14 17:30N 24°09' E 118°31'814.8
2018-May-14 16:59N 24°09' E 118°22'714.8
2018-May-14 16:30N 24°14' E 118°16'815.7
2018-May-14 16:00N 24°20' E 118°11'713.6
2018-May-14 15:30N 24°25' E 118°06'5 9.7
2018-May-14 15:00N 24°29' E 118°04'0 0.6
2018-May-14 14:29N 24°29' E 118°04'0 0.0
2018-May-14 13:59N 24°29' E 118°04'0 0.0
2018-May-14 13:29N 24°29' E 118°04'0 0.0
2018-May-14 12:58N 24°29' E 118°04'0 0.0
2018-May-14 12:29N 24°29' E 118°04'0 0.0
2018-May-14 11:46N 24°29' E 118°04'0 0.0
2018-May-14 11:10N 24°29' E 118°04'0 0.0
2018-May-14 10:59N 24°29' E 118°04'0 0.0
2018-May-14 10:29N 24°29' E 118°04'0 0.0
2018-May-14 09:47N 24°29' E 118°04'0 0.0
2018-May-14 09:22N 24°29' E 118°04'1 2.4
2018-May-14 08:58N 24°29' E 118°03'510.6
2018-May-14 08:30N 24°24' E 118°06'612.9
2018-May-14 08:01N 24°20' E 118°11'20215.3
2018-May-13 18:49N 25°31' E 121°39'515.9
2018-May-13 18:30N 25°29' E 121°45'815.4
2018-May-13 18:00N 25°28' E 121°53'815.5
2018-May-13 17:30N 25°28' E 122°02'142 6.1
2018-May-12 18:00N 25°00' E 124°36'   180 / 161012.010.8 25.022.221.0
Track history (hours):
 
Tides and Currents Weather Stations Pressure Air Temp Water Temp Dewpoint Dewpoint Depression Visibility Wind Speed Wind Dir Waves Ship Positions

Norwegian Dream

Operator: Norwegian Cruise Line

Last reported at 2018-May-22 18:00 UTC. Time now 2018-May-23 05:23 UTC.
Position N 25°42' E 125°24'.

Type: Other ship. MMSI: 308272000.

Wind from 270 at 10 knots

Barometer 1010.0 mb
Air temperature 26.0 ° C
Visibility: greater than 10.8 NM
Dewpoint 24.6 ° C
Water temperature 30.0 ° C

Date/timePositionNaut miles runAvg speedWind from/ knotsBaromVisibWave heightAir tempDewpointWater temp
2018-May-22 18:00N 25°42' E 125°24'34615.8 270 / 101010.010.8 26.024.630.0
2018-May-21 20:05N 24°31' E 119°10'715.3
2018-May-21 19:40N 24°27' E 119°05'715.5
2018-May-21 19:12N 24°24' E 118°58'715.9
2018-May-21 18:45N 24°20' E 118°51'1016.1
2018-May-21 18:07N 24°14' E 118°42'646.6
2018-May-21 18:00N 24°12' E 118°36'386.8 020 / 101011.0 5.4 26.024.630.0
2018-May-21 17:57N 24°13' E 118°39'816.0
2018-May-21 17:28N 24°11' E 118°31'715.9
2018-May-21 17:00N 24°12' E 118°23'815.6
2018-May-21 16:30N 24°15' E 118°15'714.2
2018-May-21 16:01N 24°21' E 118°10'714.1
2018-May-21 15:30N 24°25' E 118°04'4 7.9
2018-May-21 15:00N 24°29' E 118°04'0 0.1
2018-May-21 14:27N 24°29' E 118°04'0 0.0
2018-May-21 13:57N 24°29' E 118°04'0 0.0
2018-May-21 13:27N 24°29' E 118°04'0 0.0
2018-May-21 12:57N 24°29' E 118°04'0 0.0
2018-May-21 12:27N 24°29' E 118°04'0 0.0
2018-May-21 11:57N 24°29' E 118°04'0 0.0
2018-May-21 11:27N 24°29' E 118°04'0 0.0
2018-May-21 10:57N 24°29' E 118°04'0 0.0
2018-May-21 10:25N 24°29' E 118°04'0 0.0
2018-May-21 09:57N 24°29' E 118°04'0 0.0
2018-May-21 09:30N 24°29' E 118°04'2 3.5
2018-May-21 09:00N 24°28' E 118°03'611.4
2018-May-21 08:30N 24°23' E 118°07'612.5
2018-May-21 08:01N 24°19' E 118°12'714.3
2018-May-21 07:30N 24°13' E 118°17'714.2
2018-May-21 07:00N 24°10' E 118°23'20515.8
2018-May-20 18:00N 25°24' E 121°54'211 8.8 200 / 81010.0 5.4 26.024.630.0
2018-May-19 18:00N 25°24' E 125°48'18 0.8 180 / 141010.010.8 26.024.630.0
2018-May-18 18:00N 25°42' E 125°48'38716.8 180 / 191010.0 5.4 26.024.631.0
2018-May-17 18:54N 24°21' E 118°50'1517.2
2018-May-17 18:02N 24°14' E 118°36'217.0
2018-May-17 17:56N 24°13' E 118°34'716.6
2018-May-17 17:30N 24°12' E 118°27'815.7
2018-May-17 17:00N 24°14' E 118°18'815.1
2018-May-17 16:30N 24°19' E 118°12'611.6
2018-May-17 16:00N 24°23' E 118°07'510.3
2018-May-17 15:30N 24°26' E 118°03'3 6.1
2018-May-17 15:00N 24°29' E 118°04'0 0.0
2018-May-17 14:15N 24°29' E 118°04'0 0.0
2018-May-17 13:57N 24°29' E 118°04'0 0.0
2018-May-17 13:27N 24°29' E 118°04'0 0.0
2018-May-17 12:58N 24°29' E 118°04'0 0.0
2018-May-17 11:33N 24°29' E 118°04'0 0.0
2018-May-17 10:57N 24°29' E 118°04'0 0.0
2018-May-17 10:22N 24°29' E 118°04'0 0.8
2018-May-17 10:00N 24°29' E 118°04'4 7.4
2018-May-17 09:30N 24°25' E 118°04'612.0
2018-May-17 09:00N 24°21' E 118°09'814.3
2018-May-17 08:27N 24°16' E 118°15'1319.9
2018-May-17 07:49N 24°11' E 118°28'20114.5
2018-May-16 18:00N 25°24' E 121°54'149 6.2 170 / 271009.0 5.4 26.023.222.0
2018-May-15 18:00N 25°00' E 124°36'31313.7 160 / 191011.010.8 27.024.323.0
2018-May-14 19:07N 24°23' E 118°54'516.3
2018-May-14 18:48N 24°20' E 118°50'2024.2
2018-May-14 18:00N 24°12' E 118°30'6114.1 170 / 141010.010.8 25.022.221.0
2018-May-14 17:56N 24°13' E 118°37'715.6
2018-May-14 17:30N 24°09' E 118°31'814.8
2018-May-14 16:59N 24°09' E 118°22'714.8
2018-May-14 16:30N 24°14' E 118°16'815.7
2018-May-14 16:00N 24°20' E 118°11'713.6
2018-May-14 15:30N 24°25' E 118°06'5 9.7
2018-May-14 15:00N 24°29' E 118°04'0 0.6
2018-May-14 14:29N 24°29' E 118°04'0 0.0
2018-May-14 13:59N 24°29' E 118°04'0 0.0
2018-May-14 13:29N 24°29' E 118°04'0 0.0
2018-May-14 12:58N 24°29' E 118°04'0 0.0
2018-May-14 12:29N 24°29' E 118°04'0 0.0
2018-May-14 11:46N 24°29' E 118°04'0 0.0
2018-May-14 11:10N 24°29' E 118°04'0 0.0
2018-May-14 10:59N 24°29' E 118°04'0 0.0
2018-May-14 10:29N 24°29' E 118°04'0 0.0
2018-May-14 09:47N 24°29' E 118°04'0 0.0
2018-May-14 09:22N 24°29' E 118°04'1 2.4
2018-May-14 08:58N 24°29' E 118°03'510.6
2018-May-14 08:30N 24°24' E 118°06'612.9
2018-May-14 08:01N 24°20' E 118°11'20215.3
2018-May-13 18:49N 25°31' E 121°39'515.9
2018-May-13 18:30N 25°29' E 121°45'815.4
2018-May-13 18:00N 25°28' E 121°53'815.5
2018-May-13 17:30N 25°28' E 122°02'142 6.1
2018-May-12 18:00N 25°00' E 124°36'   180 / 161012.010.8 25.022.221.0

Dump ship's entire track history